createdAt,value
2023-05-07T00:00:36.308Z,63.13
2023-05-07T00:03:02.984Z,74.53
2023-05-07T00:05:30.177Z,70.72
2023-05-07T00:07:58.439Z,80.47
2023-05-07T00:10:26.883Z,96.75
2023-05-07T00:12:53.604Z,107.28
2023-05-07T00:15:20.759Z,110.47
2023-05-07T00:17:47.411Z,120.30
2023-05-07T00:20:14.216Z,124.70
2023-05-07T00:22:41.051Z,125.43
2023-05-07T00:25:08.428Z,124.15
2023-05-07T00:27:35.020Z,126.53
2023-05-07T00:30:01.628Z,137.02
2023-05-07T00:32:28.248Z,155.35
2023-05-07T00:34:55.027Z,153.85
2023-05-07T00:37:21.773Z,162.10
2023-05-07T00:39:48.368Z,159.25
2023-05-07T00:42:16.076Z,150.57
2023-05-07T00:44:42.910Z,173.88
2023-05-07T00:47:09.664Z,178.80
2023-05-07T00:49:39.589Z,162.25
2023-05-07T00:52:08.524Z,171.68
2023-05-07T00:54:35.796Z,171.27
2023-05-07T00:57:04.622Z,190.40
2023-05-07T00:59:33.154Z,180.95
2023-05-07T01:02:00.508Z,183.02
2023-05-07T01:04:27.824Z,189.13
2023-05-07T01:06:59.899Z,188.35
2023-05-07T01:09:28.436Z,191.70
2023-05-07T01:11:58.503Z,205.52
2023-05-07T01:14:26.659Z,205.00
2023-05-07T01:16:54.331Z,194.80
2023-05-07T01:19:21.226Z,207.27
2023-05-07T01:21:49.608Z,202.48
2023-05-07T01:24:16.684Z,202.50
2023-05-07T01:26:45.411Z,196.60
2023-05-07T01:29:12.066Z,195.82
2023-05-07T01:31:39.992Z,195.45
2023-05-07T01:34:09.472Z,202.70
2023-05-07T01:36:39.767Z,199.13
2023-05-07T01:39:07.561Z,197.40
2023-05-07T01:41:34.237Z,192.10
2023-05-07T01:44:02.351Z,195.52
2023-05-07T01:46:29.836Z,196.00
2023-05-07T01:48:56.774Z,201.60
2023-05-07T01:51:23.785Z,202.90
2023-05-07T01:53:51.890Z,197.30
2023-05-07T01:56:19.139Z,206.10
2023-05-07T01:58:49.193Z,196.20
2023-05-07T02:01:15.843Z,188.75
2023-05-07T02:03:42.680Z,189.23
2023-05-07T02:06:09.662Z,187.15
2023-05-07T02:08:36.543Z,193.90
2023-05-07T02:11:03.196Z,184.48
2023-05-07T02:13:34.474Z,177.85
2023-05-07T02:16:01.125Z,175.88
2023-05-07T02:18:27.968Z,176.25
2023-05-07T02:20:54.539Z,174.93
2023-05-07T02:23:21.240Z,170.05
2023-05-07T02:25:47.797Z,172.63
2023-05-07T02:28:14.429Z,170.65
2023-05-07T02:30:41.450Z,159.95
2023-05-07T02:33:09.568Z,165.13
2023-05-07T02:35:36.356Z,160.18
2023-05-07T02:38:03.412Z,150.75
2023-05-07T02:40:30.061Z,151.38
2023-05-07T02:42:56.987Z,146.38
2023-05-07T02:45:23.551Z,147.18
2023-05-07T02:47:50.266Z,159.52
2023-05-07T02:50:17.134Z,152.35
2023-05-07T02:52:43.780Z,152.57
2023-05-07T02:55:10.435Z,157.70
2023-05-07T02:57:37.022Z,157.93
2023-05-07T03:00:19.962Z,147.63
2023-05-07T03:02:46.817Z,132.90
2023-05-07T03:05:13.721Z,125.65
2023-05-07T03:07:40.381Z,125.45
2023-05-07T03:10:07.388Z,111.10
2023-05-07T03:12:33.960Z,107.43
2023-05-07T03:15:00.580Z,97.65
2023-05-07T03:17:27.175Z,90.70
2023-05-07T03:19:53.864Z,93.07
2023-05-07T03:22:20.503Z,92.75
2023-05-07T03:24:47.112Z,88.90
2023-05-07T03:27:13.659Z,88.25
2023-05-07T03:29:40.542Z,87.63
2023-05-07T03:32:07.534Z,83.90
2023-05-07T03:34:34.145Z,84.50
2023-05-07T03:37:01.402Z,85.30
2023-05-07T03:39:28.100Z,84.82
2023-05-07T03:41:54.687Z,86.68
2023-05-07T03:44:21.339Z,84.22
2023-05-07T03:46:48.081Z,83.05
2023-05-07T03:49:14.764Z,85.57
2023-05-07T03:51:41.376Z,79.57
2023-05-07T03:54:08.378Z,77.88
2023-05-07T03:56:34.929Z,80.32
2023-05-07T03:59:02.611Z,80.22
2023-05-07T04:01:29.247Z,74.07
2023-05-07T04:03:56.835Z,78.93
2023-05-07T04:06:23.688Z,76.57
2023-05-07T04:08:50.283Z,73.70
2023-05-07T04:11:16.883Z,69.95
2023-05-07T04:13:43.494Z,66.68
2023-05-07T04:16:10.071Z,65.03
2023-05-07T04:18:36.738Z,68.57
2023-05-07T04:21:03.342Z,61.30
2023-05-07T04:23:30.055Z,60.75
2023-05-07T04:25:57.088Z,62.22
2023-05-07T04:28:24.138Z,62.97
2023-05-07T04:30:50.765Z,59.85
2023-05-07T04:33:18.286Z,60.67
2023-05-07T04:35:44.902Z,60.13
2023-05-07T04:38:12.057Z,63.20
2023-05-07T04:40:38.702Z,65.18
2023-05-07T04:43:05.578Z,62.75
2023-05-07T04:45:32.307Z,64.47
2023-05-07T04:47:58.929Z,62.88
2023-05-07T04:50:26.119Z,62.03
2023-05-07T04:52:52.672Z,65.45
2023-05-07T04:55:19.374Z,63.80
2023-05-07T04:57:46.360Z,64.15
2023-05-07T05:00:15.505Z,65.45
2023-05-07T05:02:42.312Z,64.95
2023-05-07T05:05:09.593Z,65.25
2023-05-07T05:07:36.194Z,66.90
2023-05-07T05:10:04.254Z,72.43
2023-05-07T05:12:31.563Z,66.53
2023-05-07T05:14:58.278Z,67.00
2023-05-07T05:17:25.078Z,69.72
2023-05-07T05:19:51.938Z,73.18
2023-05-07T05:22:18.565Z,70.68
2023-05-07T05:24:45.129Z,73.43
2023-05-07T05:27:11.735Z,74.13
2023-05-07T05:29:38.324Z,74.70
2023-05-07T05:32:05.201Z,78.60
2023-05-07T05:34:31.808Z,80.00
2023-05-07T05:37:00.196Z,86.13
2023-05-07T05:39:26.885Z,86.43
2023-05-07T05:41:53.472Z,101.93
2023-05-07T05:44:20.008Z,107.47
2023-05-07T05:46:46.696Z,114.35
2023-05-07T05:49:13.297Z,122.65
2023-05-07T05:51:39.904Z,132.90
2023-05-07T05:54:06.494Z,146.30
2023-05-07T05:56:33.233Z,157.90
2023-05-07T05:59:00.038Z,160.65
2023-05-07T06:01:26.828Z,168.98
2023-05-07T06:03:53.510Z,182.43
2023-05-07T06:06:20.208Z,160.93
2023-05-07T06:08:46.923Z,175.73
2023-05-07T06:11:13.509Z,168.52
2023-05-07T06:13:40.202Z,172.48
2023-05-07T06:16:07.773Z,167.73
2023-05-07T06:18:34.493Z,185.82
2023-05-07T06:21:01.056Z,142.75
2023-05-07T06:23:27.634Z,122.55
2023-05-07T06:25:54.222Z,135.25
2023-05-07T06:28:21.104Z,120.47
2023-05-07T06:30:48.285Z,143.00
2023-05-07T06:33:14.872Z,74.95
2023-05-07T06:35:41.469Z,60.72
2023-05-07T06:38:08.048Z,68.82
2023-05-07T06:40:34.627Z,88.93
2023-05-07T06:43:01.276Z,89.65
2023-05-07T06:45:27.929Z,122.30
2023-05-07T06:47:54.610Z,142.35
2023-05-07T06:50:21.311Z,145.35
2023-05-07T06:52:47.866Z,86.68
2023-05-07T06:55:14.637Z,97.82
2023-05-07T06:57:41.259Z,69.60
2023-05-07T07:00:10.317Z,109.25
2023-05-07T07:02:37.838Z,99.10
2023-05-07T07:05:05.092Z,81.95
2023-05-07T07:07:31.876Z,64.72
2023-05-07T07:09:58.478Z,53.60
2023-05-07T07:12:26.994Z,50.75
2023-05-07T07:14:55.078Z,30.77
2023-05-07T07:17:22.088Z,36.97
2023-05-07T07:19:48.701Z,24.33
2023-05-07T07:22:15.334Z,20.13
2023-05-07T07:24:42.022Z,19.50
2023-05-07T07:27:08.727Z,14.10
2023-05-07T07:29:35.431Z,15.65
2023-05-07T07:32:02.018Z,12.93
2023-05-07T07:34:28.673Z,16.52
2023-05-07T07:36:55.233Z,15.82
2023-05-07T07:39:21.834Z,18.85
2023-05-07T07:41:48.383Z,24.33
2023-05-07T07:44:16.324Z,27.27
2023-05-07T07:46:43.396Z,27.05
2023-05-07T07:49:10.078Z,27.95
2023-05-07T07:51:36.692Z,26.65
2023-05-07T07:54:03.893Z,32.40
2023-05-07T07:56:30.586Z,30.65
2023-05-07T07:58:57.133Z,28.50
2023-05-07T08:01:23.762Z,26.90
2023-05-07T08:03:50.804Z,21.10
2023-05-07T08:06:17.506Z,20.67
2023-05-07T08:08:44.300Z,18.00
2023-05-07T08:11:11.181Z,21.42
2023-05-07T08:13:39.415Z,20.80
2023-05-07T08:16:06.419Z,20.70
2023-05-07T08:18:33.028Z,19.55
2023-05-07T08:20:59.703Z,18.00
2023-05-07T08:23:26.283Z,17.42
2023-05-07T08:25:53.210Z,20.02
2023-05-07T08:28:20.787Z,18.60
2023-05-07T08:30:47.782Z,18.02
2023-05-07T08:33:14.698Z,20.50
2023-05-07T08:35:41.364Z,18.80
2023-05-07T08:38:07.975Z,16.90
2023-05-07T08:40:38.967Z,19.55
2023-05-07T08:43:07.305Z,16.45
2023-05-07T08:45:35.133Z,17.02
2023-05-07T08:48:06.491Z,16.05
2023-05-07T08:50:36.353Z,19.45
2023-05-07T08:53:04.839Z,19.50
2023-05-07T08:55:31.562Z,20.30
2023-05-07T08:57:58.163Z,19.50
2023-05-07T09:00:24.809Z,17.55
2023-05-07T09:02:51.678Z,18.17
2023-05-07T09:05:18.386Z,18.08
2023-05-07T09:07:45.506Z,19.45
2023-05-07T09:10:12.579Z,17.67
2023-05-07T09:12:40.244Z,17.60
2023-05-07T09:15:07.737Z,16.38
2023-05-07T09:17:34.332Z,13.80
2023-05-07T09:20:10.106Z,14.52
2023-05-07T09:22:38.894Z,13.20
2023-05-07T09:25:10.506Z,13.52
2023-05-07T09:27:37.712Z,14.40
2023-05-07T09:30:07.228Z,17.88
2023-05-07T09:32:40.859Z,14.65
2023-05-07T09:35:22.482Z,14.35
2023-05-07T09:37:49.120Z,14.18
2023-05-07T09:40:26.803Z,14.55
2023-05-07T09:42:53.676Z,14.00
2023-05-07T09:45:26.118Z,15.05
2023-05-07T09:47:56.398Z,15.20
2023-05-07T09:50:29.013Z,14.88
2023-05-07T09:52:57.194Z,15.30
2023-05-07T09:55:24.396Z,14.77
2023-05-07T09:57:52.287Z,15.80
2023-05-07T10:00:23.300Z,15.98
2023-05-07T10:02:53.431Z,16.70
2023-05-07T10:05:23.579Z,15.15
2023-05-07T10:07:51.400Z,15.27
2023-05-07T10:10:18.687Z,15.60
2023-05-07T10:12:46.228Z,15.82
2023-05-07T10:15:13.737Z,15.82
2023-05-07T10:17:42.604Z,15.10
2023-05-07T10:20:09.921Z,15.50
2023-05-07T10:22:47.081Z,14.73
2023-05-07T10:25:21.970Z,15.82
2023-05-07T10:27:51.811Z,16.02
2023-05-07T10:30:27.583Z,13.95
2023-05-07T10:32:59.147Z,14.48
2023-05-07T10:35:30.550Z,13.50
2023-05-07T10:37:57.292Z,13.75
2023-05-07T10:40:24.078Z,14.63
2023-05-07T10:43:01.430Z,16.65
2023-05-07T10:45:29.804Z,15.63
2023-05-07T10:48:28.611Z,16.70
2023-05-07T10:51:20.275Z,15.75
2023-05-07T10:53:46.861Z,15.35
2023-05-07T10:56:19.633Z,15.38
2023-05-07T10:58:46.345Z,15.80
2023-05-07T11:01:14.271Z,15.00
2023-05-07T11:04:16.547Z,15.60
2023-05-07T11:06:45.884Z,14.85
2023-05-07T11:09:12.487Z,16.00
2023-05-07T11:11:49.044Z,14.32
2023-05-07T11:14:35.845Z,15.18
2023-05-07T11:17:04.939Z,15.82
2023-05-07T11:19:51.262Z,12.68
2023-05-07T11:22:32.943Z,14.65
2023-05-07T11:25:07.341Z,13.18
2023-05-07T11:27:34.839Z,13.68
2023-05-07T11:30:02.935Z,13.30
2023-05-07T11:32:32.239Z,13.38
2023-05-07T11:35:01.224Z,13.32
2023-05-07T11:37:30.605Z,13.30
2023-05-07T11:40:23.709Z,12.90
2023-05-07T11:45:28.052Z,14.20
2023-05-07T11:47:54.719Z,13.23
2023-05-07T11:50:21.350Z,13.50
2023-05-07T11:52:54.165Z,13.02
2023-05-07T11:55:20.971Z,12.60
2023-05-07T11:57:47.853Z,12.38
2023-05-07T12:00:17.498Z,12.02
2023-05-07T12:02:46.751Z,11.82
2023-05-07T12:05:13.670Z,11.48
2023-05-07T12:07:40.747Z,12.00
2023-05-07T12:10:08.014Z,10.35
2023-05-07T12:12:46.882Z,10.45
2023-05-07T12:15:23.469Z,9.63
2023-05-07T12:17:50.548Z,9.75
2023-05-07T12:20:18.189Z,10.25
2023-05-07T12:22:44.962Z,9.00
2023-05-07T12:25:11.778Z,9.60
2023-05-07T12:27:42.174Z,9.40
2023-05-07T12:30:11.575Z,9.10
2023-05-07T12:32:38.308Z,9.00
2023-05-07T12:35:07.502Z,8.90
2023-05-07T12:37:34.125Z,9.65
2023-05-07T12:40:11.279Z,8.93
2023-05-07T12:42:39.633Z,8.63
2023-05-07T12:45:14.346Z,9.35
2023-05-07T12:47:48.203Z,9.43
2023-05-07T12:50:16.395Z,9.07
2023-05-07T12:52:45.267Z,9.38
2023-05-07T12:55:15.518Z,9.20
2023-05-07T12:57:49.659Z,9.95
2023-05-07T13:00:16.735Z,9.40
2023-05-07T13:02:47.683Z,9.30
2023-05-07T13:05:14.687Z,9.40
2023-05-07T13:07:42.092Z,10.30
2023-05-07T13:10:09.428Z,11.15
2023-05-07T13:12:36.159Z,10.95
2023-05-07T13:15:02.805Z,10.18
2023-05-07T13:17:29.517Z,11.27
2023-05-07T13:19:56.181Z,10.23
2023-05-07T13:22:22.749Z,10.48
2023-05-07T13:24:49.435Z,11.10
2023-05-07T13:27:16.518Z,11.45
2023-05-07T13:29:43.109Z,11.45
2023-05-07T13:32:09.772Z,11.25
2023-05-07T13:34:37.197Z,11.40
2023-05-07T13:37:04.401Z,10.30
2023-05-07T13:39:30.986Z,10.80
2023-05-07T13:41:57.569Z,10.23
2023-05-07T13:44:24.171Z,10.10
2023-05-07T13:46:51.207Z,11.07
2023-05-07T13:49:17.928Z,10.43
2023-05-07T13:51:44.574Z,10.15
2023-05-07T13:54:11.462Z,9.68
2023-05-07T13:56:38.265Z,10.57
2023-05-07T13:59:04.851Z,10.93
2023-05-07T14:01:32.156Z,10.60
2023-05-07T14:04:00.553Z,10.55
2023-05-07T14:06:27.474Z,10.23
2023-05-07T14:08:54.124Z,11.10
2023-05-07T14:11:21.753Z,9.73
2023-05-07T14:13:48.385Z,10.30
2023-05-07T14:16:14.982Z,9.50
2023-05-07T14:18:41.624Z,9.10
2023-05-07T14:21:11.010Z,9.52
2023-05-07T14:23:37.703Z,9.18
2023-05-07T14:26:04.341Z,8.50
2023-05-07T14:28:30.934Z,8.35
2023-05-07T14:30:57.781Z,8.65
2023-05-07T14:33:24.436Z,8.98
2023-05-07T14:35:51.211Z,9.70
2023-05-07T14:38:17.844Z,8.80
2023-05-07T14:40:44.444Z,9.57
2023-05-07T14:43:11.005Z,8.93
2023-05-07T14:45:37.576Z,8.90
2023-05-07T14:48:04.672Z,9.98
2023-05-07T14:50:31.240Z,10.40
2023-05-07T14:52:57.853Z,10.10
2023-05-07T14:55:24.457Z,10.00
2023-05-07T14:57:51.112Z,10.48
2023-05-07T15:00:17.975Z,10.63
2023-05-07T15:02:44.637Z,9.98
2023-05-07T15:05:11.740Z,11.30
2023-05-07T15:07:38.522Z,10.70
2023-05-07T15:10:05.967Z,11.07
2023-05-07T15:12:32.503Z,11.10
2023-05-07T15:14:59.132Z,11.30
2023-05-07T15:17:25.752Z,11.85
2023-05-07T15:19:54.388Z,11.73
2023-05-07T15:22:22.743Z,11.52
2023-05-07T15:24:49.456Z,11.25
2023-05-07T15:27:17.699Z,10.38
2023-05-07T15:29:44.369Z,11.52
2023-05-07T15:32:11.404Z,10.60
2023-05-07T15:34:38.178Z,11.20
2023-05-07T15:37:04.763Z,10.80
2023-05-07T15:39:32.011Z,10.93
2023-05-07T15:41:58.611Z,10.52
2023-05-07T15:44:28.458Z,10.45
2023-05-07T15:46:55.304Z,11.30
2023-05-07T15:49:23.103Z,10.20
2023-05-07T15:51:51.714Z,10.45
2023-05-07T15:54:21.028Z,10.35
2023-05-07T15:56:48.254Z,10.20
2023-05-07T15:59:16.958Z,10.20
2023-05-07T16:01:45.741Z,10.73
2023-05-07T16:04:12.532Z,10.15
2023-05-07T16:06:39.323Z,10.52
2023-05-07T16:09:05.975Z,9.85
2023-05-07T16:11:34.026Z,10.23
2023-05-07T16:14:03.279Z,9.57
2023-05-07T16:16:33.684Z,9.57
2023-05-07T16:19:00.766Z,9.90
2023-05-07T16:21:27.514Z,10.57
2023-05-07T16:23:54.084Z,10.02
2023-05-07T16:26:20.660Z,10.70
2023-05-07T16:28:47.298Z,10.48
2023-05-07T16:31:13.975Z,9.70
2023-05-07T16:33:40.919Z,10.05
2023-05-07T16:36:07.820Z,9.70
2023-05-07T16:38:34.767Z,10.05
2023-05-07T16:41:01.784Z,9.73
2023-05-07T16:43:28.441Z,10.43
2023-05-07T16:45:55.197Z,9.82
2023-05-07T16:48:21.936Z,9.13
2023-05-07T16:50:48.618Z,9.50
2023-05-07T16:53:15.477Z,9.40
2023-05-07T16:55:42.258Z,9.23
2023-05-07T16:58:11.285Z,8.90
2023-05-07T17:00:49.834Z,9.90
2023-05-07T17:03:17.120Z,9.02
2023-05-07T17:05:43.854Z,8.68
2023-05-07T17:08:10.446Z,8.52
2023-05-07T17:10:37.044Z,8.88
2023-05-07T17:13:03.852Z,9.35
2023-05-07T17:15:30.685Z,9.35
2023-05-07T17:17:57.457Z,9.30
2023-05-07T17:20:25.190Z,9.88
2023-05-07T17:22:51.775Z,10.10
2023-05-07T17:25:18.905Z,9.93
2023-05-07T17:27:45.601Z,9.80
2023-05-07T17:30:13.093Z,10.20
2023-05-07T17:32:40.282Z,10.00
2023-05-07T17:35:07.419Z,10.13
2023-05-07T17:37:34.308Z,11.18
2023-05-07T17:40:01.799Z,11.07
2023-05-07T17:42:28.421Z,10.52
2023-05-07T17:44:55.863Z,11.13
2023-05-07T17:47:22.494Z,11.25
2023-05-07T17:49:49.153Z,10.40
2023-05-07T17:52:15.768Z,10.10
2023-05-07T17:54:42.483Z,10.27
2023-05-07T17:57:09.027Z,9.98
2023-05-07T17:59:35.721Z,9.30
2023-05-07T18:02:02.287Z,10.50
2023-05-07T18:04:29.072Z,9.15
2023-05-07T18:06:57.329Z,9.85
2023-05-07T18:09:23.976Z,9.20
2023-05-07T18:11:50.530Z,10.23
2023-05-07T18:14:17.243Z,10.25
2023-05-07T18:16:43.836Z,10.35
2023-05-07T18:19:10.580Z,10.90
2023-05-07T18:21:37.182Z,10.82
2023-05-07T18:24:03.887Z,11.63
2023-05-07T18:26:30.564Z,12.30
2023-05-07T18:28:57.229Z,13.23
2023-05-07T18:31:24.017Z,13.60
2023-05-07T18:33:56.039Z,12.90
2023-05-07T18:36:25.023Z,13.98
2023-05-07T18:38:52.545Z,15.07
2023-05-07T18:41:19.215Z,15.98
2023-05-07T18:43:46.003Z,16.80
2023-05-07T18:46:12.615Z,18.83
2023-05-07T18:48:39.401Z,20.80
2023-05-07T18:51:06.248Z,21.35
2023-05-07T18:53:32.876Z,21.60
2023-05-07T18:56:00.837Z,23.70
2023-05-07T18:58:27.603Z,25.90
2023-05-07T19:00:54.336Z,28.30
2023-05-07T19:03:20.926Z,27.52
2023-05-07T19:05:47.501Z,29.80
2023-05-07T19:08:14.175Z,29.90
2023-05-07T19:10:40.985Z,32.40
2023-05-07T19:13:07.647Z,32.17
2023-05-07T19:15:34.424Z,34.55
2023-05-07T19:18:01.522Z,32.67
2023-05-07T19:20:28.875Z,33.58
2023-05-07T19:22:55.740Z,42.90
2023-05-07T19:25:22.481Z,46.85
2023-05-07T19:27:50.871Z,44.58
2023-05-07T19:30:17.990Z,51.65
2023-05-07T19:32:44.855Z,54.25
2023-05-07T19:35:11.716Z,57.25
2023-05-07T19:37:39.359Z,57.90
2023-05-07T19:40:07.125Z,56.38
2023-05-07T19:42:33.785Z,51.72
2023-05-07T19:45:00.682Z,48.67
2023-05-07T19:47:27.600Z,41.10
2023-05-07T19:49:54.208Z,44.95
2023-05-07T19:52:20.834Z,36.22
2023-05-07T19:54:47.716Z,30.58
2023-05-07T19:57:15.418Z,28.85
2023-05-07T19:59:42.017Z,26.85
2023-05-07T20:02:08.699Z,18.02
2023-05-07T20:04:38.127Z,13.02
2023-05-07T20:07:05.808Z,14.18
2023-05-07T20:09:32.615Z,15.88
2023-05-07T20:11:59.346Z,17.23
2023-05-07T20:14:27.065Z,17.42
2023-05-07T20:16:53.842Z,20.33
2023-05-07T20:19:20.701Z,19.02
2023-05-07T20:21:47.309Z,19.13
2023-05-07T20:24:14.010Z,19.10
2023-05-07T20:26:41.279Z,17.60
2023-05-07T20:29:08.055Z,18.70
2023-05-07T20:31:35.379Z,17.33
2023-05-07T20:34:02.494Z,17.23
2023-05-07T20:36:29.284Z,16.75
2023-05-07T20:38:56.270Z,16.63
2023-05-07T20:41:25.471Z,15.43
2023-05-07T20:43:52.484Z,15.18
2023-05-07T20:46:22.421Z,16.80
2023-05-07T20:48:49.802Z,14.65
2023-05-07T20:51:16.553Z,14.52
2023-05-07T20:53:47.686Z,15.60
2023-05-07T20:56:15.052Z,17.33
2023-05-07T20:58:41.861Z,22.60
2023-05-07T21:01:08.567Z,24.25
2023-05-07T21:03:35.360Z,26.65
2023-05-07T21:06:01.971Z,28.63
2023-05-07T21:08:28.560Z,25.83
2023-05-07T21:10:55.446Z,26.88
2023-05-07T21:13:23.064Z,23.65
2023-05-07T21:15:49.882Z,24.65
2023-05-07T21:18:16.639Z,17.48
2023-05-07T21:20:43.210Z,13.43
2023-05-07T21:23:09.823Z,12.45
2023-05-07T21:25:40.927Z,16.55
2023-05-07T21:28:10.457Z,18.90
2023-05-07T21:30:37.327Z,20.80
2023-05-07T21:33:06.972Z,22.50
2023-05-07T21:35:36.326Z,22.13
2023-05-07T21:38:03.412Z,22.48
2023-05-07T21:40:30.213Z,24.75
2023-05-07T21:42:56.745Z,26.23
2023-05-07T21:45:23.348Z,26.95
2023-05-07T21:47:50.055Z,29.33
2023-05-07T21:50:17.012Z,28.67
2023-05-07T21:52:43.715Z,30.55
2023-05-07T21:55:10.834Z,31.88
2023-05-07T21:57:37.845Z,34.13
2023-05-07T22:00:04.895Z,32.60
2023-05-07T22:02:31.909Z,35.20
2023-05-07T22:04:58.569Z,36.60
2023-05-07T22:07:25.166Z,38.25
2023-05-07T22:09:51.995Z,41.75
2023-05-07T22:12:18.544Z,42.80
2023-05-07T22:14:45.185Z,42.25
2023-05-07T22:17:11.743Z,43.08
2023-05-07T22:19:38.521Z,45.83
2023-05-07T22:22:05.098Z,45.47
2023-05-07T22:24:31.760Z,48.42
2023-05-07T22:26:58.343Z,50.47
2023-05-07T22:29:25.090Z,50.15
2023-05-07T22:31:51.933Z,51.70
2023-05-07T22:34:18.614Z,56.60
2023-05-07T22:36:45.307Z,55.90
2023-05-07T22:39:12.196Z,59.28
2023-05-07T22:41:39.126Z,63.55
2023-05-07T22:44:06.546Z,67.03
2023-05-07T22:46:33.304Z,70.90
2023-05-07T22:49:00.028Z,75.68
2023-05-07T22:51:27.432Z,78.85
2023-05-07T22:53:54.042Z,80.40
2023-05-07T22:56:20.684Z,82.90
2023-05-07T22:58:47.277Z,87.70
2023-05-07T23:01:15.631Z,90.80
2023-05-07T23:03:42.419Z,89.43
2023-05-07T23:06:09.180Z,93.00
2023-05-07T23:08:36.580Z,92.72
2023-05-07T23:11:03.272Z,94.80
2023-05-07T23:13:30.046Z,93.05
2023-05-07T23:15:58.778Z,95.90
2023-05-07T23:18:28.323Z,96.78
2023-05-07T23:20:55.001Z,100.93
2023-05-07T23:23:22.106Z,102.40
2023-05-07T23:25:51.901Z,106.60
2023-05-07T23:28:18.589Z,107.63
2023-05-07T23:30:45.206Z,102.13
2023-05-07T23:33:12.041Z,101.28
2023-05-07T23:35:39.833Z,101.00
2023-05-07T23:38:06.376Z,100.32
2023-05-07T23:40:33.038Z,103.93
2023-05-07T23:42:59.771Z,107.30
2023-05-07T23:45:26.436Z,104.07
2023-05-07T23:47:53.072Z,102.15
2023-05-07T23:50:19.698Z,101.82
2023-05-07T23:52:46.260Z,101.30
2023-05-07T23:55:13.845Z,97.40
2023-05-07T23:57:40.408Z,98.07
